Time;durP1;ratioP1;P1;durP2;ratioP2;P2;SDS_P1;SDS_P2;PMS_P1;PMS_P2;Temp;Humidity;BMP_temperature;BMP_pressure;BME280_temperature;BME280_humidity;BME280_pressure;Samples;Min_cycle;Max_cycle;Signal;HPM_P1;HPM_P2
2023/09/27 00:00:45;;;;;;;22.13;19.77;;;14.20;99.90;;;;;;4969484;28;20468;-75
2023/09/27 00:03:11;;;;;;;24.75;21.85;;;14.30;99.90;;;;;;4955977;28;20117;-75
2023/09/27 00:05:37;;;;;;;24.85;22.20;;;14.30;99.90;;;;;;4952167;28;20113;-75
2023/09/27 00:08:04;;;;;;;23.90;21.55;;;14.30;99.90;;;;;;4988373;28;20125;-75
2023/09/27 00:10:29;;;;;;;25.73;23.02;;;14.40;99.90;;;;;;4986542;28;20041;-75
2023/09/27 00:12:55;;;;;;;24.90;22.23;;;14.40;99.90;;;;;;5002140;28;20034;-75
2023/09/27 00:15:21;;;;;;;25.85;22.67;;;14.40;99.90;;;;;;4971373;28;20342;-76
2023/09/27 00:17:48;;;;;;;25.75;23.13;;;14.30;99.90;;;;;;4969314;28;20042;-76
2023/09/27 00:20:15;;;;;;;26.35;23.58;;;14.30;99.90;;;;;;5001848;28;20045;-75
2023/09/27 00:22:44;;;;;;;26.55;23.92;;;14.20;99.90;;;;;;5001997;28;20045;-75
2023/09/27 00:25:10;;;;;;;26.05;23.35;;;14.20;99.90;;;;;;4996149;28;20104;-75
2023/09/27 00:27:37;;;;;;;26.40;23.60;;;14.10;99.90;;;;;;5003174;28;20452;-76
2023/09/27 00:30:04;;;;;;;27.45;24.55;;;14.10;99.90;;;;;;4982435;28;20039;-75
2023/09/27 00:32:30;;;;;;;27.58;24.88;;;14.00;99.90;;;;;;5003616;28;20065;-75
2023/09/27 00:34:56;;;;;;;26.08;23.45;;;14.00;99.90;;;;;;4987393;28;20038;-75
2023/09/27 00:37:22;;;;;;;27.98;24.90;;;14.00;99.90;;;;;;4964034;28;20050;-75
2023/09/27 00:39:47;;;;;;;27.52;24.60;;;13.90;99.90;;;;;;5000426;28;20034;-75
2023/09/27 00:42:13;;;;;;;28.55;25.55;;;13.90;99.90;;;;;;4988417;28;20034;-75
2023/09/27 00:44:39;;;;;;;28.45;25.60;;;13.90;99.90;;;;;;4989859;28;20034;-75
2023/09/27 00:47:06;;;;;;;28.73;25.75;;;13.90;99.90;;;;;;4984493;28;20033;-75
2023/09/27 00:49:33;;;;;;;28.58;25.17;;;13.90;99.90;;;;;;4982746;28;20054;-75
2023/09/27 00:51:59;;;;;;;27.17;24.17;;;13.90;99.90;;;;;;5002186;28;20497;-75
2023/09/27 00:54:26;;;;;;;27.65;24.70;;;14.00;99.90;;;;;;5000354;28;20042;-75
2023/09/27 00:56:52;;;;;;;28.35;25.45;;;14.10;99.90;;;;;;4975083;28;20038;-76
2023/09/27 00:59:19;;;;;;;29.27;26.17;;;14.10;99.90;;;;;;4985420;28;20475;-75
2023/09/27 01:01:46;;;;;;;27.98;25.08;;;14.10;99.90;;;;;;4989626;28;20381;-75
2023/09/27 01:04:14;;;;;;;29.55;26.20;;;14.20;99.90;;;;;;5005732;28;20104;-75
2023/09/27 01:06:41;;;;;;;29.23;26.25;;;14.20;99.90;;;;;;4969090;28;20034;-75
2023/09/27 01:09:07;;;;;;;29.27;26.27;;;14.30;99.90;;;;;;4993172;28;20037;-75
2023/09/27 01:11:33;;;;;;;28.02;25.10;;;14.30;99.90;;;;;;4972707;28;20042;-75
2023/09/27 01:13:59;;;;;;;29.83;26.42;;;14.30;99.90;;;;;;4987099;28;20041;-75
2023/09/27 01:16:25;;;;;;;29.85;26.70;;;14.30;99.90;;;;;;5006902;28;20046;-75
2023/09/27 01:18:51;;;;;;;31.25;28.05;;;14.20;99.90;;;;;;5006489;28;20069;-75
2023/09/27 01:21:19;;;;;;;29.65;26.55;;;14.20;99.90;;;;;;4953735;28;20484;-75
2023/09/27 01:23:48;;;;;;;30.45;27.20;;;14.10;99.90;;;;;;5006182;28;20038;-75
2023/09/27 01:26:16;;;;;;;30.58;27.30;;;14.10;99.90;;;;;;5003873;28;20061;-75
2023/09/27 01:28:46;;;;;;;30.17;26.95;;;14.00;99.90;;;;;;4982863;28;20097;-75
2023/09/27 01:31:12;;;;;;;29.83;26.73;;;13.90;99.90;;;;;;5001490;28;20042;-76
2023/09/27 01:33:38;;;;;;;32.05;28.33;;;13.90;99.90;;;;;;4974594;28;20038;-75
2023/09/27 01:36:04;;;;;;;31.15;27.85;;;13.80;99.90;;;;;;4985341;28;20636;-76
2023/09/27 01:38:30;;;;;;;29.92;26.77;;;13.80;99.90;;;;;;4980819;28;20160;-75
2023/09/27 01:40:55;;;;;;;30.80;27.65;;;13.80;99.90;;;;;;4953233;28;20145;-75
2023/09/27 01:43:21;;;;;;;32.17;28.55;;;13.80;99.90;;;;;;4953974;28;20038;-75
2023/09/27 01:45:47;;;;;;;30.92;27.73;;;13.90;99.90;;;;;;4986355;28;20034;-76
2023/09/27 01:48:13;;;;;;;31.67;28.42;;;13.90;99.90;;;;;;4989403;28;20117;-75
2023/09/27 01:50:39;;;;;;;32.65;29.02;;;14.00;99.90;;;;;;4982169;28;20132;-76
2023/09/27 01:53:05;;;;;;;32.50;27.65;;;14.00;99.90;;;;;;4988903;28;20041;-75
2023/09/27 01:55:31;;;;;;;34.33;30.90;;;14.00;99.90;;;;;;5001603;28;20194;-75
2023/09/27 01:57:57;;;;;;;33.90;30.20;;;14.00;99.90;;;;;;5004024;28;20045;-75
2023/09/27 02:00:23;;;;;;;33.15;29.80;;;14.00;99.90;;;;;;4988056;28;20091;-75
2023/09/27 02:02:58;;;;;;;33.50;29.92;;;14.00;99.90;;;;;;4989660;28;20114;-75
2023/09/27 02:05:25;;;;;;;32.58;29.38;;;13.90;99.90;;;;;;5004367;28;20069;-75
2023/09/27 02:07:51;;;;;;;34.35;30.75;;;13.90;99.90;;;;;;5003058;28;20050;-75
2023/09/27 02:10:17;;;;;;;32.75;29.33;;;13.90;99.90;;;;;;4982811;28;20038;-75
2023/09/27 02:12:43;;;;;;;33.10;29.85;;;13.90;99.90;;;;;;5004984;28;20044;-75
2023/09/27 02:15:11;;;;;;;34.20;30.52;;;13.90;99.90;;;;;;4981796;28;20593;-75
2023/09/27 02:17:38;;;;;;;33.10;29.35;;;13.90;99.90;;;;;;4989116;28;20030;-76
2023/09/27 02:20:07;;;;;;;32.95;29.45;;;14.00;99.90;;;;;;5003221;28;20038;-75
2023/09/27 02:22:37;;;;;;;32.13;28.25;;;13.90;99.90;;;;;;4988213;28;20116;-75
2023/09/27 02:25:09;;;;;;;31.48;28.10;;;14.00;99.90;;;;;;4999128;28;20042;-75
2023/09/27 02:27:35;;;;;;;31.70;28.38;;;14.00;99.90;;;;;;5000348;28;20034;-75
2023/09/27 02:30:03;;;;;;;32.28;29.08;;;14.00;99.90;;;;;;4977672;28;20049;-75
2023/09/27 02:32:29;;;;;;;31.80;28.63;;;14.00;99.90;;;;;;4969801;28;20546;-76
2023/09/27 02:34:55;;;;;;;31.85;28.55;;;14.00;99.90;;;;;;4981203;28;20144;-75
2023/09/27 02:37:20;;;;;;;33.55;29.98;;;14.00;99.90;;;;;;4969682;28;20413;-75
2023/09/27 02:39:46;;;;;;;34.25;30.80;;;13.90;99.90;;;;;;4987431;28;20042;-75
2023/09/27 02:42:12;;;;;;;37.45;31.33;;;13.90;99.90;;;;;;4983089;28;20128;-75
2023/09/27 02:44:38;;;;;;;35.78;31.80;;;13.80;99.90;;;;;;4984848;28;20065;-75
2023/09/27 02:47:04;;;;;;;33.65;30.15;;;13.80;99.90;;;;;;4953486;28;20038;-75
2023/09/27 02:49:32;;;;;;;34.22;30.30;;;13.70;99.90;;;;;;4992454;28;20034;-75
2023/09/27 02:51:58;;;;;;;35.15;31.58;;;13.70;99.90;;;;;;4998382;28;20559;-75
2023/09/27 02:54:24;;;;;;;37.08;33.17;;;13.70;99.90;;;;;;4992826;28;20130;-76
2023/09/27 02:56:50;;;;;;;36.00;32.15;;;13.60;99.90;;;;;;4972709;28;20038;-75
2023/09/27 02:59:16;;;;;;;35.58;31.98;;;13.60;99.90;;;;;;4996352;28;20413;-75
2023/09/27 03:01:41;;;;;;;37.28;33.08;;;13.50;99.90;;;;;;4972959;28;20038;-75
2023/09/27 03:04:09;;;;;;;37.08;33.15;;;13.50;99.90;;;;;;4998967;28;20723;-75
2023/09/27 03:06:38;;;;;;;36.15;32.65;;;13.50;99.90;;;;;;4979971;28;20481;-75
2023/09/27 03:09:05;;;;;;;34.45;30.90;;;13.50;99.90;;;;;;4961882;28;20035;-75
2023/09/27 03:11:31;;;;;;;37.63;33.45;;;13.50;99.90;;;;;;4985617;28;20026;-75
2023/09/27 03:13:59;;;;;;;35.88;31.70;;;13.50;99.90;;;;;;4979157;28;20460;-75
2023/09/27 03:16:25;;;;;;;37.00;32.90;;;13.50;99.90;;;;;;4987650;28;20116;-75
2023/09/27 03:18:50;;;;;;;35.85;32.25;;;13.50;99.90;;;;;;4992039;28;20069;-75
2023/09/27 03:21:17;;;;;;;35.40;31.63;;;13.50;99.90;;;;;;4969286;28;20092;-75
2023/09/27 03:23:43;;;;;;;35.78;31.65;;;13.50;99.90;;;;;;4985453;28;20053;-75
2023/09/27 03:26:09;;;;;;;37.10;33.38;;;13.50;99.90;;;;;;4987574;28;20044;-75
2023/09/27 03:28:34;;;;;;;36.05;32.15;;;13.50;99.90;;;;;;4994239;28;20051;-75
2023/09/27 03:31:01;;;;;;;39.40;35.20;;;13.50;99.90;;;;;;4994835;28;20677;-75
2023/09/27 03:33:27;;;;;;;37.65;32.80;;;13.50;99.90;;;;;;4964875;28;20071;-75
2023/09/27 03:35:53;;;;;;;37.80;33.65;;;13.50;99.90;;;;;;4985110;28;20041;-75
2023/09/27 03:38:19;;;;;;;36.00;32.25;;;13.40;99.90;;;;;;5004027;28;20092;-75
2023/09/27 03:40:44;;;;;;;35.75;32.08;;;13.40;99.90;;;;;;4990024;28;20121;-75
2023/09/27 03:43:10;;;;;;;39.13;34.95;;;13.40;99.90;;;;;;4985345;28;20463;-75
2023/09/27 03:45:36;;;;;;;37.17;33.30;;;13.30;99.90;;;;;;4982784;28;20046;-75
2023/09/27 03:48:02;;;;;;;35.22;31.27;;;13.30;99.90;;;;;;4979094;28;20038;-75
2023/09/27 03:50:29;;;;;;;38.47;34.45;;;13.30;99.90;;;;;;4965176;28;20038;-75
2023/09/27 03:52:58;;;;;;;38.17;32.85;;;13.20;99.90;;;;;;4984264;28;20039;-75
2023/09/27 03:55:25;;;;;;;37.00;32.65;;;13.20;99.90;;;;;;4975143;28;20038;-75
2023/09/27 03:57:54;;;;;;;40.95;34.25;;;13.20;99.90;;;;;;5002394;28;20121;-75
2023/09/27 04:00:20;;;;;;;37.55;33.53;;;13.10;99.90;;;;;;4991148;28;20064;-74
2023/09/27 04:02:46;;;;;;;40.40;36.03;;;13.10;99.90;;;;;;4980232;28;20041;-75
2023/09/27 04:05:13;;;;;;;40.47;36.15;;;13.10;99.90;;;;;;4978684;28;20035;-75
2023/09/27 04:07:39;;;;;;;37.35;33.50;;;13.10;99.90;;;;;;4983559;28;20046;-75
2023/09/27 04:10:07;;;;;;;36.65;31.65;;;13.10;99.90;;;;;;5002253;28;20121;-75
2023/09/27 04:12:34;;;;;;;37.15;33.05;;;13.10;99.90;;;;;;5002575;28;20044;-75
2023/09/27 04:15:00;;;;;;;36.63;32.72;;;13.10;99.90;;;;;;4981263;28;20520;-75
2023/09/27 04:17:26;;;;;;;37.78;33.75;;;13.00;99.90;;;;;;4981359;28;20043;-75
2023/09/27 04:19:53;;;;;;;35.70;32.13;;;13.00;99.90;;;;;;4998729;28;20045;-75
2023/09/27 04:22:19;;;;;;;40.58;36.03;;;13.00;99.90;;;;;;4967351;28;20038;-75
2023/09/27 04:24:45;;;;;;;36.67;32.78;;;12.90;99.90;;;;;;4982076;28;20552;-75
2023/09/27 04:27:12;;;;;;;38.53;34.60;;;12.90;99.90;;;;;;4998102;28;20045;-74
2023/09/27 04:29:38;;;;;;;40.38;36.28;;;12.80;99.90;;;;;;5008199;28;20505;-75
2023/09/27 04:32:04;;;;;;;42.63;38.22;;;12.80;99.90;;;;;;4982775;28;20034;-74
2023/09/27 04:34:29;;;;;;;40.53;36.17;;;12.80;99.90;;;;;;4999126;28;20591;-74
2023/09/27 04:36:56;;;;;;;42.03;37.65;;;12.80;99.90;;;;;;4997628;28;20125;-74
2023/09/27 04:39:21;;;;;;;39.65;35.58;;;12.80;99.90;;;;;;4998174;28;20564;-74
2023/09/27 04:41:47;;;;;;;40.78;36.53;;;12.80;99.90;;;;;;4994031;28;20046;-74
2023/09/27 04:44:13;;;;;;;41.03;36.60;;;12.80;99.90;;;;;;4967221;28;20035;-74
2023/09/27 04:46:39;;;;;;;37.85;33.85;;;12.80;99.90;;;;;;5001561;28;20037;-74
2023/09/27 04:49:05;;;;;;;40.65;36.35;;;12.80;99.90;;;;;;4970088;28;20026;-75
2023/09/27 04:51:30;;;;;;;41.90;36.90;;;12.80;99.90;;;;;;4978360;28;20105;-75
2023/09/27 04:54:02;;;;;;;42.75;38.15;;;12.80;99.90;;;;;;4985443;28;20045;-75
2023/09/27 04:56:29;;;;;;;42.55;38.03;;;12.80;99.90;;;;;;5000669;28;20152;-75
2023/09/27 04:58:56;;;;;;;46.05;41.28;;;12.80;99.90;;;;;;4986389;28;20489;-75
2023/09/27 05:01:26;;;;;;;46.20;41.33;;;12.80;99.90;;;;;;4984243;28;20033;-75
2023/09/27 05:03:51;;;;;;;45.83;41.03;;;12.80;99.90;;;;;;5002281;28;20047;-75
2023/09/27 05:06:17;;;;;;;45.90;40.92;;;12.80;99.90;;;;;;4980817;28;20038;-75
2023/09/27 05:08:43;;;;;;;45.25;40.47;;;12.80;99.90;;;;;;4982588;28;20527;-75
2023/09/27 05:11:08;;;;;;;49.65;42.70;;;12.80;99.90;;;;;;4987586;28;20562;-75
2023/09/27 05:13:34;;;;;;;50.60;43.58;;;12.80;99.90;;;;;;4977601;28;20489;-75
2023/09/27 05:16:00;;;;;;;49.25;43.53;;;12.80;99.90;;;;;;4997198;28;20038;-75
2023/09/27 05:18:25;;;;;;;50.35;44.92;;;12.80;99.90;;;;;;4980470;28;20052;-75
2023/09/27 05:20:51;;;;;;;48.13;43.20;;;12.80;99.90;;;;;;4993223;28;20045;-75
2023/09/27 05:23:17;;;;;;;49.40;43.95;;;12.90;99.90;;;;;;4979368;28;20053;-75
2023/09/27 05:25:43;;;;;;;51.17;45.22;;;12.80;99.90;;;;;;5000620;28;20034;-75
2023/09/27 05:28:09;;;;;;;51.78;45.35;;;12.90;99.90;;;;;;4964915;28;20160;-75
2023/09/27 05:30:35;;;;;;;53.60;48.00;;;12.90;99.90;;;;;;4981189;28;20090;-75
2023/09/27 05:33:04;;;;;;;56.08;49.65;;;12.90;99.90;;;;;;5000218;28;20050;-75
2023/09/27 05:35:30;;;;;;;55.88;47.42;;;12.90;99.90;;;;;;4991033;28;20507;-75
2023/09/27 05:37:57;;;;;;;51.60;46.10;;;12.90;99.90;;;;;;4986901;28;20046;-75
2023/09/27 05:40:23;;;;;;;52.22;46.65;;;12.90;99.90;;;;;;5011768;28;20074;-75
2023/09/27 05:42:48;;;;;;;55.30;49.30;;;12.90;99.90;;;;;;5010086;28;20041;-75
2023/09/27 05:45:14;;;;;;;54.55;48.75;;;13.00;99.90;;;;;;5005008;28;20042;-75
2023/09/27 05:47:40;;;;;;;53.97;48.17;;;13.00;99.90;;;;;;4972896;28;20046;-75
2023/09/27 05:50:13;;;;;;;52.33;46.83;;;13.00;99.90;;;;;;4970052;28;20045;-75
2023/09/27 05:52:43;;;;;;;52.70;46.95;;;13.10;99.90;;;;;;4986964;28;20042;-75
2023/09/27 05:55:09;;;;;;;53.17;47.50;;;13.10;99.90;;;;;;4967197;28;20041;-75
2023/09/27 05:57:35;;;;;;;51.95;46.47;;;13.10;99.90;;;;;;4998134;28;20087;-75
2023/09/27 06:00:03;;;;;;;55.75;46.92;;;13.10;99.90;;;;;;4978907;28;20046;-75
2023/09/27 06:02:32;;;;;;;53.22;47.45;;;13.20;99.90;;;;;;4995588;28;20494;-75
2023/09/27 06:05:00;;;;;;;53.22;47.50;;;13.20;99.90;;;;;;4983585;28;20038;-75
2023/09/27 06:07:26;;;;;;;52.85;47.20;;;13.20;99.90;;;;;;4986097;28;20096;-75
2023/09/27 06:09:51;;;;;;;53.30;47.72;;;13.20;99.90;;;;;;5000814;28;20038;-75
2023/09/27 06:12:17;;;;;;;53.25;47.70;;;13.30;99.90;;;;;;5002646;28;20033;-75
2023/09/27 06:14:43;;;;;;;52.20;46.90;;;13.30;99.90;;;;;;4983839;28;20038;-75
2023/09/27 06:17:10;;;;;;;56.75;50.55;;;13.30;99.90;;;;;;5006891;28;20049;-75
2023/09/27 06:19:37;;;;;;;53.83;47.88;;;13.30;99.90;;;;;;5000324;28;20074;-75
2023/09/27 06:22:06;;;;;;;53.22;46.15;;;13.40;99.90;;;;;;4978452;28;20552;-75
2023/09/27 06:24:31;;;;;;;53.03;47.58;;;13.40;99.90;;;;;;4963394;28;20180;-75
2023/09/27 06:26:58;;;;;;;56.63;49.78;;;13.40;99.90;;;;;;4972460;28;20120;-75
2023/09/27 06:29:24;;;;;;;51.05;45.38;;;13.40;99.90;;;;;;4975810;28;20111;-75
2023/09/27 06:31:51;;;;;;;53.15;47.65;;;13.50;99.90;;;;;;4983198;28;20034;-75
2023/09/27 06:34:17;;;;;;;56.03;49.97;;;13.50;99.90;;;;;;4996692;28;20061;-75
2023/09/27 06:36:43;;;;;;;58.25;51.92;;;13.60;99.90;;;;;;5001088;28;20038;-75
2023/09/27 06:39:15;;;;;;;56.90;50.67;;;13.60;99.90;;;;;;4972815;28;20038;-75
2023/09/27 06:41:45;;;;;;;56.83;50.03;;;13.60;99.90;;;;;;4992510;28;20642;-75
2023/09/27 06:44:12;;;;;;;55.58;49.45;;;13.60;99.90;;;;;;4981411;28;20459;-75
2023/09/27 06:46:38;;;;;;;53.92;47.83;;;13.70;99.90;;;;;;5002050;28;20124;-75
2023/09/27 06:49:04;;;;;;;60.72;50.22;;;13.70;99.90;;;;;;4991935;28;20042;-75
2023/09/27 06:51:31;;;;;;;58.42;49.35;;;13.80;99.90;;;;;;4988444;28;20186;-75
2023/09/27 06:53:57;;;;;;;56.90;50.47;;;13.80;99.90;;;;;;4988177;28;20034;-75
2023/09/27 06:56:23;;;;;;;52.42;46.78;;;13.80;99.90;;;;;;5005423;28;20096;-75
2023/09/27 06:58:51;;;;;;;60.65;51.20;;;13.80;99.90;;;;;;4984447;28;20157;-75
2023/09/27 07:01:18;;;;;;;54.05;46.47;;;13.90;99.90;;;;;;5008489;28;20081;-75
2023/09/27 07:03:44;;;;;;;52.83;47.38;;;13.90;99.90;;;;;;4986029;28;20382;-75
2023/09/27 07:06:09;;;;;;;54.88;48.83;;;13.90;99.90;;;;;;4990511;28;20045;-75
2023/09/27 07:08:35;;;;;;;54.00;48.40;;;13.90;99.90;;;;;;4987568;28;20061;-75
2023/09/27 07:11:09;;;;;;;50.63;45.33;;;14.00;99.90;;;;;;4983694;28;20038;-75
2023/09/27 07:13:35;;;;;;;50.78;45.35;;;14.00;99.90;;;;;;4991894;28;20045;-75
2023/09/27 07:16:21;;;;;;;52.88;44.17;;;14.00;99.90;;;;;;4967518;28;20076;-75
2023/09/27 07:18:48;;;;;;;51.97;46.17;;;14.20;99.90;;;;;;4991320;28;20054;-75
2023/09/27 07:21:14;;;;;;;50.80;45.25;;;14.20;99.90;;;;;;5001164;28;20125;-75
2023/09/27 07:23:40;;;;;;;48.15;43.28;;;14.30;99.90;;;;;;4980757;28;20132;-75
2023/09/27 07:26:06;;;;;;;50.90;45.55;;;14.40;99.90;;;;;;4999477;28;20046;-74
2023/09/27 07:28:32;;;;;;;46.20;41.20;;;14.40;99.90;;;;;;4978783;28;20413;-75
2023/09/27 07:30:58;;;;;;;47.45;42.25;;;14.50;99.90;;;;;;4965576;28;20045;-75
2023/09/27 07:33:25;;;;;;;49.50;43.50;;;14.60;99.90;;;;;;4999779;28;20043;-74
2023/09/27 07:35:52;;;;;;;52.63;45.90;;;14.60;99.90;;;;;;4996286;28;20045;-74
2023/09/27 07:38:18;;;;;;;50.65;45.35;;;14.70;99.90;;;;;;4984963;28;20052;-75
2023/09/27 07:40:48;;;;;;;47.30;42.10;;;14.80;99.90;;;;;;4986684;28;20465;-75
2023/09/27 07:43:15;;;;;;;47.15;42.15;;;14.80;99.90;;;;;;4991068;28;20042;-75
2023/09/27 07:45:43;;;;;;;46.47;41.45;;;14.90;99.90;;;;;;4976487;28;20042;-75
2023/09/27 07:48:10;;;;;;;48.65;42.40;;;15.00;99.90;;;;;;4975195;28;20096;-75
2023/09/27 07:50:37;;;;;;;48.85;43.05;;;15.00;99.90;;;;;;4975013;28;20045;-75
2023/09/27 07:53:06;;;;;;;46.88;41.97;;;15.10;99.90;;;;;;4993882;28;20076;-75
2023/09/27 07:55:32;;;;;;;47.80;42.78;;;15.10;99.90;;;;;;4999464;28;20042;-75
2023/09/27 07:57:58;;;;;;;47.63;42.75;;;15.10;99.90;;;;;;4977337;28;20405;-75
2023/09/27 08:00:29;;;;;;;45.45;40.67;;;15.20;99.90;;;;;;4988566;28;20527;-75
2023/09/27 08:02:57;;;;;;;45.60;40.80;;;15.30;99.90;;;;;;5010858;28;20401;-75
2023/09/27 08:05:24;;;;;;;45.72;41.13;;;15.30;99.90;;;;;;4994837;28;20532;-75
2023/09/27 08:07:51;;;;;;;43.15;38.58;;;15.40;99.90;;;;;;4994647;28;20401;-75
2023/09/27 08:10:18;;;;;;;41.50;37.15;;;15.50;99.90;;;;;;4994557;28;20042;-75
2023/09/27 08:12:44;;;;;;;40.40;36.25;;;15.40;99.90;;;;;;4996744;28;20463;-75
2023/09/27 08:15:12;;;;;;;40.72;36.42;;;15.50;99.90;;;;;;4983620;28;20042;-75
2023/09/27 08:17:38;;;;;;;42.13;37.78;;;15.60;99.90;;;;;;5014128;28;20378;-75
2023/09/27 08:20:11;;;;;;;46.05;41.17;;;15.60;99.90;;;;;;5000225;28;20120;-75
2023/09/27 08:22:39;;;;;;;42.28;37.90;;;15.60;99.90;;;;;;4972842;28;20046;-74
2023/09/27 08:25:08;;;;;;;42.10;37.50;;;15.60;99.90;;;;;;4979084;28;20045;-75
2023/09/27 08:27:34;;;;;;;42.58;37.95;;;15.70;99.90;;;;;;4991670;28;20048;-75
2023/09/27 08:30:00;;;;;;;42.47;37.90;;;15.70;99.90;;;;;;4978419;28;20042;-75
2023/09/27 08:32:26;;;;;;;41.33;37.20;;;15.80;99.90;;;;;;4969466;28;20034;-75
2023/09/27 08:34:52;;;;;;;40.70;36.38;;;16.00;99.90;;;;;;4994611;28;20497;-74
2023/09/27 08:37:17;;;;;;;40.17;35.97;;;16.20;99.90;;;;;;4991369;28;20536;-75
2023/09/27 08:39:43;;;;;;;39.83;35.83;;;16.20;99.90;;;;;;5002146;28;20048;-75
2023/09/27 08:42:09;;;;;;;39.40;35.35;;;16.30;99.90;;;;;;5006944;28;20066;-75
2023/09/27 08:44:36;;;;;;;38.50;34.60;;;16.30;99.90;;;;;;4999696;28;20084;-75
2023/09/27 08:47:01;;;;;;;38.28;34.60;;;16.40;99.90;;;;;;4991258;28;20045;-75
2023/09/27 08:49:27;;;;;;;38.60;34.70;;;16.60;99.90;;;;;;4964013;28;20126;-75
2023/09/27 08:51:53;;;;;;;36.22;32.50;;;16.80;99.90;;;;;;5007028;28;20112;-75
2023/09/27 08:54:22;;;;;;;35.20;31.58;;;17.00;99.90;;;;;;4963021;28;20057;-75
2023/09/27 08:56:50;;;;;;;37.15;33.22;;;17.10;99.90;;;;;;5002214;28;20111;-75
2023/09/27 08:59:18;;;;;;;40.38;36.15;;;17.20;99.90;;;;;;5012731;28;20117;-74
2023/09/27 09:01:45;;;;;;;39.25;35.17;;;17.30;99.90;;;;;;4984237;28;20125;-75
2023/09/27 09:04:11;;;;;;;40.60;36.25;;;17.30;99.90;;;;;;4997339;28;20539;-75
2023/09/27 09:06:40;;;;;;;39.05;34.85;;;17.40;99.90;;;;;;4982985;28;20046;-75
2023/09/27 09:09:10;;;;;;;38.00;34.10;;;17.50;99.90;;;;;;4985661;28;20477;-75
2023/09/27 09:11:47;;;;;;;36.30;32.33;;;17.80;99.90;;;;;;4991402;28;20034;-75
2023/09/27 09:14:17;;;;;;;36.85;32.85;;;18.00;99.90;;;;;;4988883;28;20107;-75
2023/09/27 09:16:50;;;;;;;31.50;28.23;;;18.20;99.90;;;;;;4963703;28;20043;-75
2023/09/27 09:19:24;;;;;;;37.08;30.45;;;18.20;99.90;;;;;;4993115;28;20544;-75
2023/09/27 09:22:00;;;;;;;31.05;27.95;;;18.20;99.90;;;;;;5006989;28;20042;-75
2023/09/27 09:24:26;;;;;;;28.60;25.70;;;18.40;99.90;;;;;;5004105;28;20042;-75
2023/09/27 09:27:09;;;;;;;29.77;26.67;;;18.50;99.90;;;;;;4975420;28;20416;-75
2023/09/27 09:29:48;;;;;;;28.15;25.20;;;18.70;99.90;;;;;;4993368;28;20065;-75
2023/09/27 09:32:18;;;;;;;28.77;25.52;;;18.80;99.90;;;;;;4976970;28;20042;-75
2023/09/27 09:34:47;;;;;;;28.15;24.67;;;18.90;99.90;;;;;;4985795;28;20034;-75
2023/09/27 09:37:21;;;;;;;26.40;23.55;;;19.00;99.90;;;;;;4996297;28;20050;-75
2023/09/27 09:39:49;;;;;;;28.85;23.23;;;19.10;99.90;;;;;;4996684;28;20456;-75
2023/09/27 09:42:31;;;;;;;23.33;20.73;;;19.10;99.90;;;;;;5012453;28;20053;-76
2023/09/27 09:45:00;;;;;;;24.48;21.33;;;19.20;99.90;;;;;;4977333;28;20057;-75
2023/09/27 09:47:28;;;;;;;23.02;20.60;;;19.20;99.90;;;;;;4991411;28;20042;-75
2023/09/27 09:49:54;;;;;;;23.15;19.45;;;19.20;99.90;;;;;;5000230;28;20507;-75
2023/09/27 09:52:26;;;;;;;21.70;19.40;;;19.30;99.90;;;;;;4996025;28;20071;-75
2023/09/27 09:54:57;;;;;;;22.15;19.88;;;19.40;99.90;;;;;;5011761;28;20120;-75
2023/09/27 09:57:30;;;;;;;22.27;18.90;;;19.50;99.90;;;;;;4983922;28;20416;-75
2023/09/27 10:00:25;;;;;;;23.90;20.85;;;19.50;99.90;;;;;;5005736;28;20057;-75
2023/09/27 10:03:01;;;;;;;22.48;20.08;;;19.50;99.90;;;;;;5006666;28;20050;-75
2023/09/27 10:05:34;;;;;;;26.90;22.20;;;19.50;99.90;;;;;;5012424;28;20042;-75
2023/09/27 10:07:59;;;;;;;24.20;21.50;;;19.50;99.90;;;;;;4994995;28;20463;-75
2023/09/27 10:10:26;;;;;;;23.77;21.17;;;19.50;99.90;;;;;;4988320;28;20057;-75
2023/09/27 10:12:54;;;;;;;24.35;20.90;;;19.50;99.90;;;;;;4993607;28;20046;-75
2023/09/27 10:15:22;;;;;;;25.20;21.70;;;19.60;99.90;;;;;;4968478;28;20048;-75
2023/09/27 10:17:47;;;;;;;24.42;21.77;;;19.70;99.90;;;;;;4987841;28;20054;-76
2023/09/27 10:20:22;;;;;;;24.88;22.00;;;19.90;99.90;;;;;;4984992;28;20034;-76
2023/09/27 10:22:49;;;;;;;25.48;22.20;;;20.00;99.90;;;;;;4973503;28;20049;-75
2023/09/27 10:25:24;;;;;;;26.67;21.05;;;20.20;99.90;;;;;;4984912;28;20129;-75
2023/09/27 10:28:01;;;;;;;27.52;22.13;;;20.40;99.90;;;;;;4984122;28;20061;-75
2023/09/27 10:30:48;;;;;;;31.35;22.08;;;20.60;99.90;;;;;;4994603;28;20074;-75
2023/09/27 10:33:17;;;;;;;20.67;17.98;;;20.70;99.90;;;;;;5001941;28;20041;-75
2023/09/27 10:35:47;;;;;;;20.63;18.55;;;20.70;99.90;;;;;;4981547;28;20499;-75
2023/09/27 10:38:13;;;;;;;22.10;18.90;;;20.60;99.90;;;;;;4987596;28;20488;-75
2023/09/27 10:40:44;;;;;;;20.10;18.00;;;20.60;99.90;;;;;;4986831;28;20069;-75
2023/09/27 10:43:38;;;;;;;20.27;18.17;;;20.60;99.90;;;;;;5002807;28;20124;-74
2023/09/27 10:46:04;;;;;;;21.95;19.05;;;20.70;99.90;;;;;;4992723;28;20492;-74
2023/09/27 10:48:37;;;;;;;20.75;18.65;;;20.80;99.90;;;;;;4985911;28;20117;-75
2023/09/27 10:51:03;;;;;;;21.50;18.48;;;21.00;99.90;;;;;;4978483;28;20053;-75
2023/09/27 10:53:32;;;;;;;22.50;19.15;;;20.90;99.90;;;;;;4993804;28;20409;-74
2023/09/27 10:55:58;;;;;;;20.52;18.42;;;20.90;99.90;;;;;;4980989;28;20097;-75
2023/09/27 10:58:24;;;;;;;21.80;19.02;;;21.00;99.90;;;;;;4971967;28;20073;-74
2023/09/27 11:00:57;;;;;;;20.73;18.52;;;21.10;99.90;;;;;;4983329;28;20046;-74
2023/09/27 11:03:29;;;;;;;20.65;18.55;;;21.30;99.90;;;;;;5001931;28;20034;-74
2023/09/27 11:05:58;;;;;;;20.23;18.05;;;21.50;99.90;;;;;;5001207;28;20046;-74
2023/09/27 11:08:25;;;;;;;21.05;17.17;;;21.70;99.90;;;;;;4984710;28;20038;-75
2023/09/27 11:10:52;;;;;;;18.50;16.55;;;21.80;99.90;;;;;;4999715;28;20038;-75
2023/09/27 11:13:21;;;;;;;18.48;15.68;;;21.90;99.90;;;;;;4993912;28;20048;-75
2023/09/27 11:15:46;;;;;;;18.63;16.05;;;22.00;99.90;;;;;;4986081;28;20038;-75
2023/09/27 11:18:12;;;;;;;16.60;14.57;;;22.10;99.90;;;;;;4993333;28;20107;-75
2023/09/27 11:20:39;;;;;;;17.95;15.93;;;22.10;99.90;;;;;;4987110;28;20042;-75
2023/09/27 11:23:05;;;;;;;19.02;16.98;;;22.00;99.90;;;;;;4967348;28;20042;-74
2023/09/27 11:25:37;;;;;;;16.85;15.15;;;22.00;99.90;;;;;;4980370;28;20049;-75
2023/09/27 11:28:04;;;;;;;18.80;16.92;;;21.90;99.90;;;;;;4965422;28;20050;-75
2023/09/27 11:30:34;;;;;;;24.73;17.17;;;21.90;99.90;;;;;;4980121;28;20042;-75
2023/09/27 11:33:04;;;;;;;20.02;17.75;;;21.90;99.90;;;;;;4980247;28;20034;-75
2023/09/27 11:35:31;;;;;;;18.98;17.10;;;21.90;99.90;;;;;;4979665;28;20064;-74
2023/09/27 11:38:11;;;;;;;19.05;16.95;;;21.80;99.90;;;;;;4981066;28;20162;-74
2023/09/27 11:40:40;;;;;;;21.35;17.95;;;21.70;99.90;;;;;;4978400;28;20052;-74
2023/09/27 11:43:06;;;;;;;17.83;15.85;;;21.70;99.90;;;;;;4963584;28;20412;-74
2023/09/27 11:45:49;;;;;;;20.95;17.38;;;21.60;99.90;;;;;;4932287;28;20046;-74
2023/09/27 11:48:29;;;;;;;17.98;16.13;;;21.60;99.90;;;;;;4959867;28;20056;-74
2023/09/27 11:51:04;;;;;;;19.95;17.92;;;21.70;99.90;;;;;;4973512;28;20042;-74
2023/09/27 11:53:30;;;;;;;20.27;16.75;;;21.90;99.90;;;;;;4971393;28;20057;-74
2023/09/27 11:55:56;;;;;;;17.60;15.80;;;22.00;99.90;;;;;;4964671;28;20031;-74
2023/09/27 11:58:23;;;;;;;18.52;14.80;;;22.10;99.90;;;;;;4955483;28;20092;-74
2023/09/27 12:00:49;;;;;;;19.23;16.15;;;22.10;99.90;;;;;;4964245;28;20176;-74
2023/09/27 12:03:15;;;;;;;18.05;15.40;;;22.10;99.90;;;;;;4980448;28;20042;-74
2023/09/27 12:05:40;;;;;;;19.77;16.05;;;22.10;99.90;;;;;;4963735;28;20038;-74
2023/09/27 12:08:08;;;;;;;18.52;16.70;;;22.00;99.90;;;;;;4966372;28;20048;-74
2023/09/27 12:10:34;;;;;;;21.85;16.67;;;21.90;99.90;;;;;;4963963;28;20065;-74
2023/09/27 12:13:00;;;;;;;16.58;14.88;;;21.90;99.90;;;;;;4965594;28;20077;-74
2023/09/27 12:15:25;;;;;;;18.27;14.60;;;21.80;99.90;;;;;;4981822;28;20124;-74
2023/09/27 12:17:54;;;;;;;16.88;14.73;;;21.70;99.90;;;;;;4956056;28;20046;-74
2023/09/27 12:20:20;;;;;;;15.43;13.93;;;21.60;99.90;;;;;;4966520;28;20057;-74
2023/09/27 12:22:46;;;;;;;16.33;14.15;;;21.70;99.90;;;;;;4966312;28;20042;-74
2023/09/27 12:25:11;;;;;;;14.77;12.25;;;21.60;99.90;;;;;;4944839;28;20088;-74
2023/09/27 12:27:37;;;;;;;15.00;12.55;;;21.60;99.90;;;;;;4957800;28;20106;-74
2023/09/27 12:30:05;;;;;;;14.20;12.25;;;21.60;99.90;;;;;;4959735;28;20444;-74